sensor_id;sensor_type;location;lat;lon;timestamp;P1;durP1;ratioP1;P2;durP2;ratioP2
21959;SDS011;11144;43.030;25.108;2023-11-19T00:01:27;5.25;;;1.90;;
21959;SDS011;11144;43.030;25.108;2023-11-19T00:03:00;3.70;;;1.60;;
21959;SDS011;11144;43.030;25.108;2023-11-19T00:04:36;4.63;;;2.17;;
21959;SDS011;11144;43.030;25.108;2023-11-19T00:06:08;3.90;;;1.20;;
21959;SDS011;11144;43.030;25.108;2023-11-19T00:07:43;2.22;;;1.13;;
21959;SDS011;11144;43.030;25.108;2023-11-19T00:09:16;7.22;;;2.53;;
21959;SDS011;11144;43.030;25.108;2023-11-19T00:10:50;3.70;;;1.58;;
21959;SDS011;11144;43.030;25.108;2023-11-19T00:12:22;2.97;;;1.00;;
21959;SDS011;11144;43.030;25.108;2023-11-19T00:13:56;3.70;;;1.20;;
21959;SDS011;11144;43.030;25.108;2023-11-19T00:15:29;2.60;;;1.20;;
21959;SDS011;11144;43.030;25.108;2023-11-19T00:17:03;1.58;;;1.05;;
21959;SDS011;11144;43.030;25.108;2023-11-19T00:18:35;2.53;;;0.82;;
21959;SDS011;11144;43.030;25.108;2023-11-19T00:20:09;1.92;;;1.10;;
21959;SDS011;11144;43.030;25.108;2023-11-19T00:21:42;2.63;;;1.02;;
21959;SDS011;11144;43.030;25.108;2023-11-19T00:23:15;3.03;;;1.40;;
21959;SDS011;11144;43.030;25.108;2023-11-19T00:24:49;3.00;;;0.98;;
21959;SDS011;11144;43.030;25.108;2023-11-19T00:26:21;2.88;;;1.25;;
21959;SDS011;11144;43.030;25.108;2023-11-19T00:27:56;2.17;;;1.08;;
21959;SDS011;11144;43.030;25.108;2023-11-19T00:29:29;2.00;;;1.08;;
21959;SDS011;11144;43.030;25.108;2023-11-19T00:31:04;3.47;;;1.42;;
21959;SDS011;11144;43.030;25.108;2023-11-19T00:32:37;4.40;;;1.85;;
21959;SDS011;11144;43.030;25.108;2023-11-19T00:34:11;3.50;;;1.45;;
21959;SDS011;11144;43.030;25.108;2023-11-19T00:35:44;4.70;;;1.73;;
21959;SDS011;11144;43.030;25.108;2023-11-19T00:37:17;3.95;;;1.80;;
21959;SDS011;11144;43.030;25.108;2023-11-19T00:38:50;3.60;;;1.50;;
21959;SDS011;11144;43.030;25.108;2023-11-19T00:40:24;3.03;;;1.20;;
21959;SDS011;11144;43.030;25.108;2023-11-19T00:41:56;2.08;;;1.02;;
21959;SDS011;11144;43.030;25.108;2023-11-19T00:43:30;4.88;;;2.55;;
21959;SDS011;11144;43.030;25.108;2023-11-19T00:45:02;4.15;;;1.90;;
21959;SDS011;11144;43.030;25.108;2023-11-19T00:46:41;4.80;;;1.60;;
21959;SDS011;11144;43.030;25.108;2023-11-19T00:48:14;5.20;;;2.00;;
21959;SDS011;11144;43.030;25.108;2023-11-19T00:49:47;3.85;;;1.70;;
21959;SDS011;11144;43.030;25.108;2023-11-19T00:51:20;3.72;;;1.63;;
21959;SDS011;11144;43.030;25.108;2023-11-19T00:52:53;5.35;;;1.73;;
21959;SDS011;11144;43.030;25.108;2023-11-19T00:54:26;3.55;;;1.20;;
21959;SDS011;11144;43.030;25.108;2023-11-19T00:55:59;4.10;;;1.90;;
21959;SDS011;11144;43.030;25.108;2023-11-19T00:57:32;3.50;;;1.77;;
21959;SDS011;11144;43.030;25.108;2023-11-19T00:59:05;3.45;;;1.40;;
21959;SDS011;11144;43.030;25.108;2023-11-19T01:00:38;2.42;;;1.23;;
21959;SDS011;11144;43.030;25.108;2023-11-19T01:02:12;2.30;;;1.25;;
21959;SDS011;11144;43.030;25.108;2023-11-19T01:03:45;3.53;;;1.48;;
21959;SDS011;11144;43.030;25.108;2023-11-19T01:05:19;2.95;;;1.35;;
21959;SDS011;11144;43.030;25.108;2023-11-19T01:06:55;2.15;;;1.38;;
21959;SDS011;11144;43.030;25.108;2023-11-19T01:08:28;2.33;;;1.27;;
21959;SDS011;11144;43.030;25.108;2023-11-19T01:10:01;2.22;;;1.42;;
21959;SDS011;11144;43.030;25.108;2023-11-19T01:11:35;5.85;;;1.65;;
21959;SDS011;11144;43.030;25.108;2023-11-19T01:13:07;4.43;;;1.33;;
21959;SDS011;11144;43.030;25.108;2023-11-19T01:14:40;3.33;;;1.40;;
21959;SDS011;11144;43.030;25.108;2023-11-19T01:16:13;2.88;;;1.40;;
21959;SDS011;11144;43.030;25.108;2023-11-19T01:17:48;3.35;;;1.60;;
21959;SDS011;11144;43.030;25.108;2023-11-19T01:19:24;3.10;;;1.20;;
21959;SDS011;11144;43.030;25.108;2023-11-19T01:20:57;2.35;;;1.10;;
21959;SDS011;11144;43.030;25.108;2023-11-19T01:22:29;2.13;;;1.38;;
21959;SDS011;11144;43.030;25.108;2023-11-19T01:24:03;2.58;;;1.35;;
21959;SDS011;11144;43.030;25.108;2023-11-19T01:25:42;2.38;;;1.30;;
21959;SDS011;11144;43.030;25.108;2023-11-19T01:27:15;2.55;;;1.20;;
21959;SDS011;11144;43.030;25.108;2023-11-19T01:28:47;3.65;;;1.60;;
21959;SDS011;11144;43.030;25.108;2023-11-19T01:30:23;2.17;;;1.40;;
21959;SDS011;11144;43.030;25.108;2023-11-19T01:31:56;2.30;;;1.33;;
21959;SDS011;11144;43.030;25.108;2023-11-19T01:33:31;2.08;;;1.40;;
21959;SDS011;11144;43.030;25.108;2023-11-19T01:35:03;1.45;;;0.98;;
21959;SDS011;11144;43.030;25.108;2023-11-19T01:36:37;2.45;;;1.33;;
21959;SDS011;11144;43.030;25.108;2023-11-19T01:38:09;4.57;;;1.80;;
21959;SDS011;11144;43.030;25.108;2023-11-19T01:39:43;4.10;;;1.67;;
21959;SDS011;11144;43.030;25.108;2023-11-19T01:41:15;5.65;;;2.30;;
21959;SDS011;11144;43.030;25.108;2023-11-19T01:42:49;5.85;;;2.15;;
21959;SDS011;11144;43.030;25.108;2023-11-19T01:44:22;2.63;;;1.33;;
21959;SDS011;11144;43.030;25.108;2023-11-19T01:45:55;3.85;;;1.90;;
21959;SDS011;11144;43.030;25.108;2023-11-19T01:47:28;1.60;;;0.98;;
21959;SDS011;11144;43.030;25.108;2023-11-19T01:49:05;2.75;;;1.30;;
21959;SDS011;11144;43.030;25.108;2023-11-19T01:50:39;4.53;;;2.22;;
21959;SDS011;11144;43.030;25.108;2023-11-19T01:52:12;6.32;;;2.17;;
21959;SDS011;11144;43.030;25.108;2023-11-19T01:53:44;3.25;;;1.55;;
21959;SDS011;11144;43.030;25.108;2023-11-19T01:55:18;4.22;;;2.00;;
21959;SDS011;11144;43.030;25.108;2023-11-19T01:56:52;3.50;;;2.00;;
21959;SDS011;11144;43.030;25.108;2023-11-19T01:58:28;3.45;;;1.48;;
21959;SDS011;11144;43.030;25.108;2023-11-19T02:00:01;3.60;;;1.77;;
21959;SDS011;11144;43.030;25.108;2023-11-19T02:01:44;4.95;;;1.77;;
21959;SDS011;11144;43.030;25.108;2023-11-19T02:03:17;3.97;;;2.05;;
21959;SDS011;11144;43.030;25.108;2023-11-19T02:04:53;5.78;;;1.80;;
21959;SDS011;11144;43.030;25.108;2023-11-19T02:06:26;4.60;;;1.80;;
21959;SDS011;11144;43.030;25.108;2023-11-19T02:08:01;6.57;;;2.95;;
21959;SDS011;11144;43.030;25.108;2023-11-19T02:09:34;6.95;;;2.80;;
21959;SDS011;11144;43.030;25.108;2023-11-19T02:11:09;4.30;;;1.60;;
21959;SDS011;11144;43.030;25.108;2023-11-19T02:12:43;3.33;;;1.75;;
21959;SDS011;11144;43.030;25.108;2023-11-19T02:14:17;5.00;;;1.90;;
21959;SDS011;11144;43.030;25.108;2023-11-19T02:15:50;3.63;;;1.83;;
21959;SDS011;11144;43.030;25.108;2023-11-19T02:17:26;4.65;;;2.17;;
21959;SDS011;11144;43.030;25.108;2023-11-19T02:18:59;2.60;;;1.30;;
21959;SDS011;11144;43.030;25.108;2023-11-19T02:20:34;1.50;;;0.90;;
21959;SDS011;11144;43.030;25.108;2023-11-19T02:22:06;1.27;;;0.80;;
21959;SDS011;11144;43.030;25.108;2023-11-19T02:23:40;3.10;;;1.40;;
21959;SDS011;11144;43.030;25.108;2023-11-19T02:25:15;3.10;;;1.40;;
21959;SDS011;11144;43.030;25.108;2023-11-19T02:26:54;2.65;;;1.25;;
21959;SDS011;11144;43.030;25.108;2023-11-19T02:28:36;3.60;;;2.10;;
21959;SDS011;11144;43.030;25.108;2023-11-19T02:30:11;2.35;;;1.17;;
21959;SDS011;11144;43.030;25.108;2023-11-19T02:31:44;2.55;;;0.88;;
21959;SDS011;11144;43.030;25.108;2023-11-19T02:33:17;2.50;;;1.67;;
21959;SDS011;11144;43.030;25.108;2023-11-19T02:34:50;1.95;;;1.05;;
21959;SDS011;11144;43.030;25.108;2023-11-19T02:36:24;3.05;;;1.65;;
21959;SDS011;11144;43.030;25.108;2023-11-19T02:37:57;3.28;;;1.40;;
21959;SDS011;11144;43.030;25.108;2023-11-19T02:39:31;2.15;;;1.23;;
21959;SDS011;11144;43.030;25.108;2023-11-19T02:41:04;1.40;;;0.80;;
21959;SDS011;11144;43.030;25.108;2023-11-19T02:42:38;2.53;;;1.15;;
21959;SDS011;11144;43.030;25.108;2023-11-19T02:44:12;2.97;;;1.65;;
21959;SDS011;11144;43.030;25.108;2023-11-19T02:45:45;2.22;;;1.40;;
21959;SDS011;11144;43.030;25.108;2023-11-19T02:47:17;4.18;;;1.67;;
21959;SDS011;11144;43.030;25.108;2023-11-19T02:48:54;5.00;;;2.00;;
21959;SDS011;11144;43.030;25.108;2023-11-19T02:50:28;2.15;;;1.25;;
21959;SDS011;11144;43.030;25.108;2023-11-19T02:52:03;6.47;;;2.08;;
21959;SDS011;11144;43.030;25.108;2023-11-19T02:53:38;4.00;;;0.55;;
21959;SDS011;11144;43.030;25.108;2023-11-19T02:55:12;5.80;;;1.50;;
21959;SDS011;11144;43.030;25.108;2023-11-19T02:56:45;5.82;;;2.33;;
21959;SDS011;11144;43.030;25.108;2023-11-19T02:58:20;2.78;;;1.52;;
21959;SDS011;11144;43.030;25.108;2023-11-19T02:59:57;2.05;;;1.10;;
21959;SDS011;11144;43.030;25.108;2023-11-19T03:01:30;2.70;;;1.10;;
21959;SDS011;11144;43.030;25.108;2023-11-19T03:03:05;2.75;;;1.58;;
21959;SDS011;11144;43.030;25.108;2023-11-19T03:04:50;2.60;;;1.60;;
21959;SDS011;11144;43.030;25.108;2023-11-19T03:06:23;4.40;;;1.45;;
21959;SDS011;11144;43.030;25.108;2023-11-19T03:07:56;2.20;;;1.50;;
21959;SDS011;11144;43.030;25.108;2023-11-19T03:09:30;3.05;;;1.48;;
21959;SDS011;11144;43.030;25.108;2023-11-19T03:11:02;2.22;;;1.17;;
21959;SDS011;11144;43.030;25.108;2023-11-19T03:12:36;2.42;;;1.60;;
21959;SDS011;11144;43.030;25.108;2023-11-19T03:14:08;1.48;;;0.88;;
21959;SDS011;11144;43.030;25.108;2023-11-19T03:15:43;10.25;;;1.20;;
21959;SDS011;11144;43.030;25.108;2023-11-19T03:17:16;1.90;;;1.30;;
21959;SDS011;11144;43.030;25.108;2023-11-19T03:18:50;2.17;;;1.10;;
21959;SDS011;11144;43.030;25.108;2023-11-19T03:20:24;1.60;;;0.93;;
21959;SDS011;11144;43.030;25.108;2023-11-19T03:21:59;1.67;;;1.00;;
21959;SDS011;11144;43.030;25.108;2023-11-19T03:23:33;1.30;;;0.90;;
21959;SDS011;11144;43.030;25.108;2023-11-19T03:25:07;3.17;;;1.60;;
21959;SDS011;11144;43.030;25.108;2023-11-19T03:26:40;2.92;;;1.52;;
21959;SDS011;11144;43.030;25.108;2023-11-19T03:28:14;4.65;;;1.92;;
21959;SDS011;11144;43.030;25.108;2023-11-19T03:29:47;5.32;;;1.90;;
21959;SDS011;11144;43.030;25.108;2023-11-19T03:31:21;2.30;;;1.50;;
21959;SDS011;11144;43.030;25.108;2023-11-19T03:32:56;2.60;;;1.45;;
21959;SDS011;11144;43.030;25.108;2023-11-19T03:34:28;3.40;;;1.90;;
21959;SDS011;11144;43.030;25.108;2023-11-19T03:36:02;6.45;;;2.22;;
21959;SDS011;11144;43.030;25.108;2023-11-19T03:37:34;6.00;;;1.73;;
21959;SDS011;11144;43.030;25.108;2023-11-19T03:39:08;3.00;;;1.48;;
21959;SDS011;11144;43.030;25.108;2023-11-19T03:40:40;3.47;;;1.98;;
21959;SDS011;11144;43.030;25.108;2023-11-19T03:42:14;3.40;;;1.98;;
21959;SDS011;11144;43.030;25.108;2023-11-19T03:43:46;2.22;;;1.20;;
21959;SDS011;11144;43.030;25.108;2023-11-19T03:45:20;4.43;;;2.22;;
21959;SDS011;11144;43.030;25.108;2023-11-19T03:46:54;3.67;;;1.25;;
21959;SDS011;11144;43.030;25.108;2023-11-19T03:48:27;3.20;;;0.93;;
21959;SDS011;11144;43.030;25.108;2023-11-19T03:50:01;2.45;;;1.48;;
21959;SDS011;11144;43.030;25.108;2023-11-19T03:51:34;3.35;;;1.70;;
21959;SDS011;11144;43.030;25.108;2023-11-19T03:53:08;2.10;;;1.33;;
21959;SDS011;11144;43.030;25.108;2023-11-19T03:54:40;5.18;;;2.13;;
21959;SDS011;11144;43.030;25.108;2023-11-19T03:56:13;4.75;;;2.28;;
21959;SDS011;11144;43.030;25.108;2023-11-19T03:57:46;4.93;;;2.70;;
21959;SDS011;11144;43.030;25.108;2023-11-19T03:59:20;4.00;;;2.17;;
21959;SDS011;11144;43.030;25.108;2023-11-19T04:00:52;3.67;;;1.45;;
21959;SDS011;11144;43.030;25.108;2023-11-19T04:02:27;4.30;;;1.80;;
21959;SDS011;11144;43.030;25.108;2023-11-19T04:03:59;5.15;;;2.00;;
21959;SDS011;11144;43.030;25.108;2023-11-19T04:05:33;3.33;;;2.03;;
21959;SDS011;11144;43.030;25.108;2023-11-19T04:07:06;4.18;;;2.15;;
21959;SDS011;11144;43.030;25.108;2023-11-19T04:08:39;5.70;;;2.28;;
21959;SDS011;11144;43.030;25.108;2023-11-19T04:10:12;4.20;;;1.75;;
21959;SDS011;11144;43.030;25.108;2023-11-19T04:11:46;3.88;;;2.45;;
21959;SDS011;11144;43.030;25.108;2023-11-19T04:13:19;3.88;;;2.25;;
21959;SDS011;11144;43.030;25.108;2023-11-19T04:14:52;3.58;;;2.00;;
21959;SDS011;11144;43.030;25.108;2023-11-19T04:16:28;3.85;;;2.05;;
21959;SDS011;11144;43.030;25.108;2023-11-19T04:18:02;3.13;;;2.03;;
21959;SDS011;11144;43.030;25.108;2023-11-19T04:19:36;4.82;;;1.90;;
21959;SDS011;11144;43.030;25.108;2023-11-19T04:21:09;2.70;;;1.70;;
21959;SDS011;11144;43.030;25.108;2023-11-19T04:22:42;3.33;;;1.85;;
21959;SDS011;11144;43.030;25.108;2023-11-19T04:24:16;2.08;;;1.60;;
21959;SDS011;11144;43.030;25.108;2023-11-19T04:25:48;2.90;;;1.58;;
21959;SDS011;11144;43.030;25.108;2023-11-19T04:27:22;2.78;;;1.60;;
21959;SDS011;11144;43.030;25.108;2023-11-19T04:28:54;6.78;;;3.78;;
21959;SDS011;11144;43.030;25.108;2023-11-19T04:30:27;4.45;;;2.78;;
21959;SDS011;11144;43.030;25.108;2023-11-19T04:32:00;8.43;;;5.28;;
21959;SDS011;11144;43.030;25.108;2023-11-19T04:33:35;5.88;;;3.25;;
21959;SDS011;11144;43.030;25.108;2023-11-19T04:35:07;4.22;;;2.13;;
21959;SDS011;11144;43.030;25.108;2023-11-19T04:38:38;3.13;;;2.15;;
21959;SDS011;11144;43.030;25.108;2023-11-19T04:40:11;4.20;;;2.58;;
21959;SDS011;11144;43.030;25.108;2023-11-19T04:41:47;4.20;;;2.90;;
21959;SDS011;11144;43.030;25.108;2023-11-19T04:43:21;3.15;;;1.90;;
21959;SDS011;11144;43.030;25.108;2023-11-19T04:44:54;5.18;;;4.68;;
21959;SDS011;11144;43.030;25.108;2023-11-19T04:46:27;6.05;;;4.75;;
21959;SDS011;11144;43.030;25.108;2023-11-19T04:47:59;3.72;;;1.98;;
21959;SDS011;11144;43.030;25.108;2023-11-19T04:49:34;2.42;;;1.60;;
21959;SDS011;11144;43.030;25.108;2023-11-19T04:51:07;3.10;;;1.80;;
21959;SDS011;11144;43.030;25.108;2023-11-19T04:52:40;4.88;;;2.97;;
21959;SDS011;11144;43.030;25.108;2023-11-19T04:54:14;5.65;;;2.15;;
21959;SDS011;11144;43.030;25.108;2023-11-19T04:55:47;2.42;;;2.03;;
21959;SDS011;11144;43.030;25.108;2023-11-19T04:57:20;5.45;;;2.30;;
21959;SDS011;11144;43.030;25.108;2023-11-19T04:58:53;4.53;;;2.55;;
21959;SDS011;11144;43.030;25.108;2023-11-19T05:00:25;4.72;;;2.55;;
21959;SDS011;11144;43.030;25.108;2023-11-19T05:01:59;5.10;;;2.40;;
21959;SDS011;11144;43.030;25.108;2023-11-19T05:03:32;6.57;;;2.47;;
21959;SDS011;11144;43.030;25.108;2023-11-19T05:05:06;4.63;;;2.50;;
21959;SDS011;11144;43.030;25.108;2023-11-19T05:06:41;4.47;;;2.65;;
21959;SDS011;11144;43.030;25.108;2023-11-19T05:08:14;4.88;;;2.00;;
21959;SDS011;11144;43.030;25.108;2023-11-19T05:09:47;3.30;;;1.85;;
21959;SDS011;11144;43.030;25.108;2023-11-19T05:11:20;4.22;;;1.90;;
21959;SDS011;11144;43.030;25.108;2023-11-19T05:12:53;4.70;;;2.72;;
21959;SDS011;11144;43.030;25.108;2023-11-19T05:14:27;3.92;;;2.35;;
21959;SDS011;11144;43.030;25.108;2023-11-19T05:16:01;2.88;;;2.00;;
21959;SDS011;11144;43.030;25.108;2023-11-19T05:17:33;3.78;;;2.10;;
21959;SDS011;11144;43.030;25.108;2023-11-19T05:19:09;3.47;;;2.28;;
21959;SDS011;11144;43.030;25.108;2023-11-19T05:20:42;3.78;;;2.10;;
21959;SDS011;11144;43.030;25.108;2023-11-19T05:22:16;2.67;;;1.65;;
21959;SDS011;11144;43.030;25.108;2023-11-19T05:23:48;3.28;;;1.75;;
21959;SDS011;11144;43.030;25.108;2023-11-19T05:25:22;3.63;;;2.20;;
21959;SDS011;11144;43.030;25.108;2023-11-19T05:26:54;4.65;;;2.65;;
21959;SDS011;11144;43.030;25.108;2023-11-19T05:28:28;4.30;;;2.05;;
21959;SDS011;11144;43.030;25.108;2023-11-19T05:30:00;3.45;;;1.70;;
21959;SDS011;11144;43.030;25.108;2023-11-19T05:31:34;4.65;;;2.92;;
21959;SDS011;11144;43.030;25.108;2023-11-19T05:33:09;6.78;;;2.88;;
21959;SDS011;11144;43.030;25.108;2023-11-19T05:34:41;4.55;;;2.42;;
21959;SDS011;11144;43.030;25.108;2023-11-19T05:36:18;6.82;;;2.20;;
21959;SDS011;11144;43.030;25.108;2023-11-19T05:37:52;4.75;;;2.40;;
21959;SDS011;11144;43.030;25.108;2023-11-19T05:39:24;3.75;;;1.90;;
21959;SDS011;11144;43.030;25.108;2023-11-19T05:40:58;2.47;;;1.75;;
21959;SDS011;11144;43.030;25.108;2023-11-19T05:42:31;3.17;;;2.13;;
21959;SDS011;11144;43.030;25.108;2023-11-19T05:44:03;3.35;;;2.35;;
21959;SDS011;11144;43.030;25.108;2023-11-19T05:45:37;2.28;;;1.48;;
21959;SDS011;11144;43.030;25.108;2023-11-19T05:47:09;4.55;;;3.00;;
21959;SDS011;11144;43.030;25.108;2023-11-19T05:48:43;4.32;;;2.17;;
21959;SDS011;11144;43.030;25.108;2023-11-19T05:50:17;4.72;;;2.47;;
21959;SDS011;11144;43.030;25.108;2023-11-19T05:51:52;4.07;;;2.83;;
21959;SDS011;11144;43.030;25.108;2023-11-19T05:53:27;5.03;;;2.63;;
21959;SDS011;11144;43.030;25.108;2023-11-19T05:55:00;5.60;;;4.40;;
21959;SDS011;11144;43.030;25.108;2023-11-19T05:56:36;10.70;;;3.38;;
21959;SDS011;11144;43.030;25.108;2023-11-19T05:58:09;4.80;;;2.85;;
21959;SDS011;11144;43.030;25.108;2023-11-19T05:59:44;4.15;;;2.65;;
21959;SDS011;11144;43.030;25.108;2023-11-19T06:01:18;6.25;;;3.22;;
21959;SDS011;11144;43.030;25.108;2023-11-19T06:02:51;4.78;;;3.22;;
21959;SDS011;11144;43.030;25.108;2023-11-19T06:04:24;6.28;;;3.83;;
21959;SDS011;11144;43.030;25.108;2023-11-19T06:05:57;5.43;;;3.25;;
21959;SDS011;11144;43.030;25.108;2023-11-19T06:07:32;4.53;;;3.35;;
21959;SDS011;11144;43.030;25.108;2023-11-19T06:09:04;6.47;;;2.90;;
21959;SDS011;11144;43.030;25.108;2023-11-19T06:10:41;5.78;;;2.55;;
21959;SDS011;11144;43.030;25.108;2023-11-19T06:12:14;4.85;;;2.92;;
21959;SDS011;11144;43.030;25.108;2023-11-19T06:13:47;5.72;;;2.58;;
21959;SDS011;11144;43.030;25.108;2023-11-19T06:15:23;5.45;;;2.70;;
21959;SDS011;11144;43.030;25.108;2023-11-19T06:16:56;5.55;;;3.42;;
21959;SDS011;11144;43.030;25.108;2023-11-19T06:18:29;5.13;;;2.78;;
21959;SDS011;11144;43.030;25.108;2023-11-19T06:20:03;4.60;;;2.75;;
21959;SDS011;11144;43.030;25.108;2023-11-19T06:21:37;4.90;;;3.05;;
21959;SDS011;11144;43.030;25.108;2023-11-19T06:23:11;6.70;;;4.65;;
21959;SDS011;11144;43.030;25.108;2023-11-19T06:24:45;4.57;;;2.83;;
21959;SDS011;11144;43.030;25.108;2023-11-19T06:26:18;5.38;;;3.17;;
21959;SDS011;11144;43.030;25.108;2023-11-19T06:27:50;5.55;;;3.28;;
21959;SDS011;11144;43.030;25.108;2023-11-19T06:29:23;6.60;;;3.92;;
21959;SDS011;11144;43.030;25.108;2023-11-19T06:30:56;6.00;;;3.63;;
21959;SDS011;11144;43.030;25.108;2023-11-19T06:32:30;5.45;;;3.45;;
21959;SDS011;11144;43.030;25.108;2023-11-19T06:34:02;5.47;;;4.25;;
21959;SDS011;11144;43.030;25.108;2023-11-19T06:35:35;6.43;;;3.67;;
21959;SDS011;11144;43.030;25.108;2023-11-19T06:37:08;9.32;;;5.13;;
21959;SDS011;11144;43.030;25.108;2023-11-19T06:38:43;5.85;;;3.55;;
21959;SDS011;11144;43.030;25.108;2023-11-19T06:40:15;6.90;;;2.55;;
21959;SDS011;11144;43.030;25.108;2023-11-19T06:41:49;4.80;;;2.85;;
21959;SDS011;11144;43.030;25.108;2023-11-19T06:43:22;6.38;;;3.53;;
21959;SDS011;11144;43.030;25.108;2023-11-19T06:44:55;10.88;;;3.60;;
21959;SDS011;11144;43.030;25.108;2023-11-19T06:46:28;6.07;;;3.60;;
21959;SDS011;11144;43.030;25.108;2023-11-19T06:48:02;4.25;;;2.92;;
21959;SDS011;11144;43.030;25.108;2023-11-19T06:49:35;4.75;;;2.72;;
21959;SDS011;11144;43.030;25.108;2023-11-19T06:51:08;6.97;;;3.20;;
21959;SDS011;11144;43.030;25.108;2023-11-19T06:52:41;5.50;;;3.35;;
21959;SDS011;11144;43.030;25.108;2023-11-19T06:54:15;6.38;;;3.70;;
21959;SDS011;11144;43.030;25.108;2023-11-19T06:55:48;4.78;;;1.63;;
21959;SDS011;11144;43.030;25.108;2023-11-19T06:57:22;3.85;;;2.35;;
21959;SDS011;11144;43.030;25.108;2023-11-19T06:58:55;8.55;;;3.13;;
21959;SDS011;11144;43.030;25.108;2023-11-19T07:00:28;7.03;;;4.00;;
21959;SDS011;11144;43.030;25.108;2023-11-19T07:02:01;7.40;;;4.55;;
21959;SDS011;11144;43.030;25.108;2023-11-19T07:03:36;8.27;;;4.47;;
21959;SDS011;11144;43.030;25.108;2023-11-19T07:05:08;9.10;;;4.57;;
21959;SDS011;11144;43.030;25.108;2023-11-19T07:06:43;9.48;;;4.93;;
21959;SDS011;11144;43.030;25.108;2023-11-19T07:08:16;9.80;;;5.07;;
21959;SDS011;11144;43.030;25.108;2023-11-19T07:09:50;12.60;;;7.00;;
21959;SDS011;11144;43.030;25.108;2023-11-19T07:11:23;6.90;;;4.55;;
21959;SDS011;11144;43.030;25.108;2023-11-19T07:12:56;7.22;;;3.55;;
21959;SDS011;11144;43.030;25.108;2023-11-19T07:14:29;10.00;;;5.07;;
21959;SDS011;11144;43.030;25.108;2023-11-19T07:16:03;9.80;;;5.00;;
21959;SDS011;11144;43.030;25.108;2023-11-19T07:17:35;6.55;;;3.83;;
21959;SDS011;11144;43.030;25.108;2023-11-19T07:19:09;6.53;;;4.05;;
21959;SDS011;11144;43.030;25.108;2023-11-19T07:20:41;7.75;;;3.67;;
21959;SDS011;11144;43.030;25.108;2023-11-19T07:22:15;4.00;;;3.10;;
21959;SDS011;11144;43.030;25.108;2023-11-19T07:23:49;4.45;;;2.15;;
21959;SDS011;11144;43.030;25.108;2023-11-19T07:25:24;8.13;;;4.85;;
21959;SDS011;11144;43.030;25.108;2023-11-19T07:26:58;7.35;;;3.85;;
21959;SDS011;11144;43.030;25.108;2023-11-19T07:28:30;8.02;;;4.60;;
21959;SDS011;11144;43.030;25.108;2023-11-19T07:30:04;6.88;;;3.03;;
21959;SDS011;11144;43.030;25.108;2023-11-19T07:31:39;10.63;;;4.93;;
21959;SDS011;11144;43.030;25.108;2023-11-19T07:33:12;13.52;;;6.00;;
21959;SDS011;11144;43.030;25.108;2023-11-19T07:34:45;14.10;;;7.20;;
21959;SDS011;11144;43.030;25.108;2023-11-19T07:36:17;12.07;;;6.35;;
21959;SDS011;11144;43.030;25.108;2023-11-19T07:37:51;13.60;;;5.88;;
21959;SDS011;11144;43.030;25.108;2023-11-19T07:39:23;8.02;;;4.85;;
21959;SDS011;11144;43.030;25.108;2023-11-19T07:40:58;14.63;;;8.52;;
21959;SDS011;11144;43.030;25.108;2023-11-19T07:42:30;7.03;;;4.97;;
21959;SDS011;11144;43.030;25.108;2023-11-19T07:44:04;6.57;;;3.85;;
21959;SDS011;11144;43.030;25.108;2023-11-19T07:45:36;12.02;;;7.20;;
21959;SDS011;11144;43.030;25.108;2023-11-19T07:47:09;20.98;;;12.73;;
21959;SDS011;11144;43.030;25.108;2023-11-19T07:48:43;8.60;;;4.40;;
21959;SDS011;11144;43.030;25.108;2023-11-19T07:50:15;7.88;;;5.03;;
21959;SDS011;11144;43.030;25.108;2023-11-19T07:51:51;12.90;;;3.85;;
21959;SDS011;11144;43.030;25.108;2023-11-19T07:53:24;8.05;;;4.20;;
21959;SDS011;11144;43.030;25.108;2023-11-19T07:54:57;5.68;;;3.30;;
21959;SDS011;11144;43.030;25.108;2023-11-19T07:56:32;11.80;;;6.18;;
21959;SDS011;11144;43.030;25.108;2023-11-19T07:58:06;5.25;;;3.50;;
21959;SDS011;11144;43.030;25.108;2023-11-19T07:59:39;4.95;;;3.40;;
21959;SDS011;11144;43.030;25.108;2023-11-19T08:01:11;4.20;;;3.15;;
21959;SDS011;11144;43.030;25.108;2023-11-19T08:02:45;4.00;;;2.95;;
21959;SDS011;11144;43.030;25.108;2023-11-19T08:04:18;6.65;;;4.05;;
21959;SDS011;11144;43.030;25.108;2023-11-19T08:05:51;6.78;;;4.53;;
21959;SDS011;11144;43.030;25.108;2023-11-19T08:07:23;8.77;;;5.90;;
21959;SDS011;11144;43.030;25.108;2023-11-19T08:08:56;10.13;;;6.22;;
21959;SDS011;11144;43.030;25.108;2023-11-19T08:10:29;6.22;;;4.45;;
21959;SDS011;11144;43.030;25.108;2023-11-19T08:12:05;8.75;;;6.30;;
21959;SDS011;11144;43.030;25.108;2023-11-19T08:13:38;5.82;;;4.35;;
21959;SDS011;11144;43.030;25.108;2023-11-19T08:15:11;9.10;;;4.75;;
21959;SDS011;11144;43.030;25.108;2023-11-19T08:16:44;6.20;;;3.40;;
21959;SDS011;11144;43.030;25.108;2023-11-19T08:18:18;8.07;;;4.82;;
21959;SDS011;11144;43.030;25.108;2023-11-19T08:19:50;8.60;;;4.90;;
21959;SDS011;11144;43.030;25.108;2023-11-19T08:21:23;7.13;;;3.90;;
21959;SDS011;11144;43.030;25.108;2023-11-19T08:22:56;3.85;;;2.65;;
21959;SDS011;11144;43.030;25.108;2023-11-19T08:24:30;5.00;;;2.85;;
21959;SDS011;11144;43.030;25.108;2023-11-19T08:26:03;9.25;;;6.55;;
21959;SDS011;11144;43.030;25.108;2023-11-19T08:27:37;9.15;;;4.93;;
21959;SDS011;11144;43.030;25.108;2023-11-19T08:29:11;18.52;;;7.57;;
21959;SDS011;11144;43.030;25.108;2023-11-19T08:30:43;9.57;;;4.47;;
21959;SDS011;11144;43.030;25.108;2023-11-19T08:32:16;5.45;;;3.75;;
21959;SDS011;11144;43.030;25.108;2023-11-19T08:33:49;5.63;;;3.25;;
21959;SDS011;11144;43.030;25.108;2023-11-19T08:35:22;4.07;;;3.33;;
21959;SDS011;11144;43.030;25.108;2023-11-19T08:36:55;4.00;;;3.03;;
21959;SDS011;11144;43.030;25.108;2023-11-19T08:38:28;5.60;;;3.15;;
21959;SDS011;11144;43.030;25.108;2023-11-19T08:40:03;8.07;;;4.65;;
21959;SDS011;11144;43.030;25.108;2023-11-19T08:41:36;7.10;;;3.88;;
21959;SDS011;11144;43.030;25.108;2023-11-19T08:43:13;13.60;;;7.65;;
21959;SDS011;11144;43.030;25.108;2023-11-19T08:44:48;9.65;;;7.35;;
21959;SDS011;11144;43.030;25.108;2023-11-19T08:46:22;6.00;;;5.40;;
21959;SDS011;11144;43.030;25.108;2023-11-19T08:47:55;5.95;;;4.03;;
21959;SDS011;11144;43.030;25.108;2023-11-19T08:49:28;6.60;;;4.35;;
21959;SDS011;11144;43.030;25.108;2023-11-19T08:51:01;7.97;;;5.30;;
21959;SDS011;11144;43.030;25.108;2023-11-19T08:52:33;28.38;;;10.38;;
21959;SDS011;11144;43.030;25.108;2023-11-19T08:54:07;25.83;;;9.38;;
21959;SDS011;11144;43.030;25.108;2023-11-19T08:55:40;10.00;;;4.85;;
21959;SDS011;11144;43.030;25.108;2023-11-19T08:57:13;10.35;;;4.95;;
21959;SDS011;11144;43.030;25.108;2023-11-19T08:58:46;9.68;;;6.15;;
21959;SDS011;11144;43.030;25.108;2023-11-19T09:00:39;7.05;;;3.90;;
21959;SDS011;11144;43.030;25.108;2023-11-19T09:02:12;4.28;;;3.03;;
21959;SDS011;11144;43.030;25.108;2023-11-19T09:03:44;9.52;;;5.88;;
21959;SDS011;11144;43.030;25.108;2023-11-19T09:05:18;6.85;;;3.92;;
21959;SDS011;11144;43.030;25.108;2023-11-19T09:06:50;4.43;;;2.47;;
21959;SDS011;11144;43.030;25.108;2023-11-19T09:08:24;8.60;;;4.53;;
21959;SDS011;11144;43.030;25.108;2023-11-19T09:09:57;7.50;;;4.18;;
21959;SDS011;11144;43.030;25.108;2023-11-19T09:11:29;4.70;;;2.85;;
21959;SDS011;11144;43.030;25.108;2023-11-19T09:13:03;6.57;;;4.22;;
21959;SDS011;11144;43.030;25.108;2023-11-19T09:14:36;10.55;;;7.78;;
21959;SDS011;11144;43.030;25.108;2023-11-19T09:16:11;8.23;;;4.30;;
21959;SDS011;11144;43.030;25.108;2023-11-19T09:17:43;28.23;;;19.83;;